• Join FlightAware (Why Join?)
  • Login
  • US Flag 
07:33PM EST


 

Airport Tracker/Info


-or-


 

Live Flight TrackerFlight Track Log ✈ EJA922 ✈ 09-Jul-2013 ✈ KCOE - KCRQ

Flight Track Log - Related Links

Times and Time Zones

All times are in EDT time to prevent confusion due to time zone crossing. See the EJA922 flight status page for this flight to view local times or setup timezone preferences in your user account.

Time Position Orientation Groundspeed Altitude Reporting Facility
EDT Latitude Longitude Course Direction KTS MPH feet Rate Location/Type
01:36PM 47.7769 -116.9347 248° West 226 260 10,400  Level Seattle Center
01:37PM 47.7344 -117.0553 242° Southwest 317 365 13,500 3,000 Climbing Seattle Center
01:38PM 47.6436 -117.0964 197° South 351 404 16,600 2,460 Climbing Seattle Center
01:40PM 47.5242 -117.1403 194° South 376 433 18,600 1,980 Climbing Seattle Center
01:41PM 47.4053 -117.6333 180° South  Level FlightAware Approximate
01:41PM 47.4164 -117.1781 193° South 403 464 20,700  Level Seattle Center
01:42PM 47.3086 -117.2169 194° South 402 463 22,600 1,800 Climbing Seattle Center
01:43PM 47.1997 -117.2556 194° South 402 463 24,400 1,680 Climbing Seattle Center
01:44PM 47.0875 -117.2953 194° South 411 473 26,100 1,620 Climbing Seattle Center
01:45PM 46.9725 -117.3367 194° South 423 487 27,700 1,740 Climbing Seattle Center
01:46PM 46.8319 -117.3869 194° South 433 498 29,700 1,740 Climbing Seattle Center
01:47PM 46.7131 -117.4289 194° South 439 505 31,300 1,560 Climbing Seattle Center
01:48PM 46.5917 -117.4714 194° South 448 516 32,900 1,380 Climbing Seattle Center
01:49PM 46.4678 -117.5144 193° South 458 527 34,200 1,260 Climbing Seattle Center
01:50PM 46.3411 -117.5586 194° South 467 537 35,600 1,560 Climbing Seattle Center
01:51PM 46.2147 -117.6011 193° South 468 539 37,400 1,620 Climbing Seattle Center
01:52PM 46.0936 -117.6453 194° South 453 521 39,000 1,500 Climbing Seattle Center
01:53PM 45.9733 -117.6856 193° South 447 514 40,500 960 Climbing Seattle Center
01:54PM 45.8536 -117.7244 193° South 441 507 41,000 240 Climbing Seattle Center
01:55PM 45.7033 -117.7750 193° South 461 531 41,000  Level Seattle Center
01:56PM 45.5842 -117.8156 193° South 470 541 41,000  Level Seattle Center
01:57PM 45.4533 -117.8592 193° South 478 550 41,000  Level Seattle Center
01:58PM 45.3236 -117.9031 193° South 479 551 41,000  Level Seattle Center
01:59PM 45.1917 -117.9458 193° South 485 558 41,000  Level Seattle Center
02:00PM 45.0439 -117.9956 193° South 479 551 41,000  Level Seattle Center
02:01PM 44.9189 -118.0367 193° South 482 555 41,000  Level Seattle Center
02:02PM 44.7733 -118.0842 193° South 482 555 41,000  Level Seattle Center
02:03PM 44.6486 -118.1258 193° South 481 554 41,000  Level Seattle Center
02:04PM 44.5031 -118.1722 193° South 481 554 41,000  Level Seattle Center
02:05PM 44.3833 -118.2111 193° South 480 552 41,000  Level Seattle Center
02:06PM 44.2539 -118.2528 193° South 477 549 41,000  Level Seattle Center
02:07PM 44.1228 -118.2944 193° South 482 555 41,000  Level Seattle Center
02:08PM 43.9631 -118.3461 193° South 481 554 41,000  Level Salt Lake Center
02:09PM 43.8319 -118.3886 193° South 481 554 41,000  Level Salt Lake Center
02:10PM 43.7108 -118.4247 192° South 486 559 41,000  Level Seattle Center
02:11PM 43.5861 -118.4642 193° South 483 556 41,000  Level Seattle Center
02:12PM 43.4397 -118.5086 192° South 483 556 41,000  Level Seattle Center
02:13PM 43.3075 -118.5517 193° South 485 558 41,000  Level Salt Lake Center
02:14PM 43.1478 -118.6017 193° South 482 555 41,000  Level Salt Lake Center
02:15PM 43.0197 -118.6408 193° South 482 555 41,000  Level Salt Lake Center
02:16PM 42.8878 -118.6808 193° South 484 557 41,000  Level Salt Lake Center
02:18PM 42.7569 -118.7225 193° South 484 557 41,000  Level Salt Lake Center
02:19PM 42.6264 -118.7619 193° South 481 554 41,000  Level Salt Lake Center
02:20PM 42.4967 -118.8011 193° South 478 550 41,000  Level Salt Lake Center
02:21PM 42.3394 -118.8467 192° South 482 555 41,000  Level Salt Lake Center
02:22PM 42.2142 -118.8867 193° South 481 554 41,000  Level Salt Lake Center
02:23PM 42.0686 -118.9281 192° South 480 552 41,000  Level Salt Lake Center
02:24PM 41.9436 -118.9656 193° South 480 552 41,000  Level Salt Lake Center
02:25PM 41.7997 -119.0067 192° South 476 548 41,000  Level Salt Lake Center
02:26PM 41.6744 -119.0461 193° South 480 552 41,000  Level Salt Lake Center
02:27PM 41.5267 -119.0900 193° South 485 558 41,000  Level Salt Lake Center
02:28PM 41.4019 -119.1258 192° South 482 555 41,000  Level Salt Lake Center
02:29PM 41.2581 -119.1661 192° South 482 555 41,000  Level Oakland Center
02:30PM 41.1339 -119.2022 192° South 480 552 41,000  Level Oakland Center
02:31PM 41.0056 -119.2406 193° South 482 555 41,000  Level Salt Lake Center
02:32PM 40.8617 -119.2811 192° South 483 556 41,000  Level Oakland Center
02:33PM 40.7308 -119.3186 192° South 476 548 41,000  Level Oakland Center
02:34PM 40.6006 -119.3569 193° South 478 550 41,000  Level Oakland Center
02:35PM 40.4714 -119.3944 192° South 475 547 41,000  Level Oakland Center
02:36PM 40.3422 -119.4311 192° South 477 549 41,000  Level Oakland Center
02:37PM 40.2125 -119.4667 192° South 478 550 41,000  Level Oakland Center
02:38PM 40.0578 -119.5094 192° South 476 548 41,000  Level Oakland Center
02:39PM 39.9286 -119.5467 192° South 476 548 41,000  Level Oakland Center
02:40PM 39.7989 -119.5814 192° South 477 549 41,000  Level Oakland Center
02:41PM 39.6675 -119.5769 179° South 474 545 41,000  Level Oakland Center
02:42PM 39.5314 -119.5592 174° South 491 565 41,000  Level Oakland Center
02:43PM 39.3967 -119.5433 175° South 490 564 41,000  Level Oakland Center
02:45PM 39.1817 -119.5217 176° South 488 562 41,000  Level Los Angeles Center
02:45PM 39.1258 -119.5094 170° South 492 566 41,000  Level Oakland Center
02:46PM 38.9636 -119.4897 175° South 492 566 41,000  Level Oakland Center
02:47PM 38.8281 -119.4731 175° South 492 566 41,000  Level Oakland Center
02:48PM 38.6922 -119.4578 175° South 493 567 41,000  Level Oakland Center
02:49PM 38.5594 -119.4442 175° South 484 557 41,000  Level Oakland Center
02:50PM 38.4233 -119.4272 174° South 488 562 41,000  Level Oakland Center
02:51PM 38.2869 -119.4114 175° South 492 566 41,000  Level Oakland Center
02:52PM 38.1428 -119.3950 175° South 488 562 41,000  Level Oakland Center
02:53PM 38.0092 -119.3792 175° South 482 555 41,000  Level Oakland Center
02:55PM 37.8742 -119.3636 175° South 483 556 41,000  Level Oakland Center
02:56PM 37.7372 -119.3478 175° South 490 564 41,000  Level Oakland Center
02:57PM 37.5842 -119.3294 175° South 488 562 41,000  Level Oakland Center
02:58PM 37.4483 -119.3131 175° South 492 566 41,000  Level Oakland Center
02:59PM 37.3119 -119.2972 175° South 491 565 41,000  Level Oakland Center
03:00PM 37.1761 -119.2817 175° South 491 565 41,000  Level Oakland Center
03:01PM 37.0425 -119.2667 175° South 486 559 41,000  Level Oakland Center
03:02PM 36.9072 -119.2528 175° South 486 559 41,000  Level Oakland Center
03:03PM 36.7731 -119.2389 175° South 486 559 41,000  Level Oakland Center
03:04PM 36.6389 -119.2233 175° South 484 557 41,000  Level Oakland Center
03:05PM 36.4786 -119.2050 175° South 481 554 41,000  Level Oakland Center
03:06PM 36.3458 -119.1911 175° South 479 551 41,000 -60 Level Oakland Center
03:07PM 36.2103 -119.1747 174° South 485 558 40,900  Descending Oakland Center
03:08PM 36.0767 -119.1342 166° South 490 564 41,000  Climbing Oakland Center
03:09PM 35.9428 -119.0894 165° South 495 570 41,000 -240 Level Oakland Center
03:10PM 35.8103 -119.0442 165° South 492 566 40,600 -840 Descending Oakland Center
03:11PM 35.6781 -119.0003 165° South 492 566 39,400 -1,200 Descending Oakland Center
03:12PM 35.5483 -118.9572 165° South 484 557 38,200 -1,200 Descending Oakland Center
03:13PM 35.4147 -118.9139 165° South 491 565 37,000 -1,200 Descending Oakland Center
03:14PM 35.2811 -118.8700 165° South 495 570 35,800 -1,020 Descending Oakland Center
03:15PM 35.1203 -118.8178 165° South 497 572 35,000 -420 Descending Oakland Center
03:16PM 34.9850 -118.7728 165° South 500 575 35,000 -360 Level Oakland Center
03:17PM 34.8483 -118.7292 165° South 502 578 34,300 -1,080 Descending Oakland Center
03:19PM 34.6403 -118.6628 165° South 511 588 32,400 -1,320 Descending Los Angeles Center
03:20PM 34.5028 -118.6183 165° South 511 588 31,100 -1,800 Descending Los Angeles Center
03:21PM 34.3650 -118.5736 165° South 511 588 28,800 -2,280 Descending Los Angeles Center
03:22PM 34.2331 -118.5319 165° South 494 568 26,500 -2,280 Descending Los Angeles Center
03:23PM 34.1031 -118.4892 165° South 486 559 24,200 -1,500 Descending Los Angeles Center
03:24PM 33.9756 -118.4481 165° South 476 548 23,400 -1,380 Descending Los Angeles Center
03:25PM 33.8239 -118.4703 187° South 471 542 21,400 -1,680 Descending Los Angeles Center
03:26PM 33.7033 -118.5128 196° South 459 528 20,000 -1,020 Descending Los Angeles Center
03:27PM 33.5831 -118.5478 194° South 450 518 19,400 -1,260 Descending Los Angeles Center
03:28PM 33.4711 -118.5047 162° South 434 499 17,200 -2,280 Descending Los Angeles Center
03:29PM 33.3658 -118.3575 131° Southeast 435 501 14,300 -2,340 Descending Los Angeles Center
03:30PM 33.3494 -118.2322 99° East 393 452 12,400 -1,800 Descending Los Angeles Center
03:31PM 33.3356 -118.1222 99° East 349 402 10,700 -1,740 Descending Los Angeles Center
03:32PM 33.3225 -118.0222 99° East 316 364 8,900 -2,340 Descending Los Angeles Center
03:33PM 33.3100 -117.9247 99° East 303 349 5,900 -1,740 Descending Los Angeles Center
03:34PM 33.2956 -117.8133 99° East 288 331 5,000 -420 Descending Los Angeles Center
03:35PM 33.2797 -117.7025 100° East 284 327 5,000  Level Los Angeles Center
03:37PM 33.2667 -117.6000 99° East 286 329 5,000  Level Southern California TRACON
03:38PM 33.2500 -117.5000 101° East 287 330 5,000 -540 Level Southern California TRACON
03:39PM 33.2333 -117.4167 103° East 276 318 4,000 -540 Descending Southern California TRACON
03:40PM 33.2333 -117.3167 90° East 271 312 4,000 -240 Level Southern California TRACON
03:41PM 33.2333 -117.2333 90° East 263 303 3,600 -180 Descending Southern California TRACON
03:42PM 33.2000 -117.1667 121° Southeast 236 272 3,700 -360 Climbing Southern California TRACON
03:43PM 33.1500 -117.1667 180° South 246 283 2,900 -1,140 Descending Southern California TRACON
03:44PM 33.1333 -117.2167 248° West 157 181 1,500 -1,200 Descending Southern California TRACON
03:45PM 33.1333 -117.2667 270° West 123 142 500 -1,020 Descending Southern California TRACON